Terminal Aerodrome Forecast
Issued by NWS

Home | Current Version | Previous Version | Text Only | Print | Product List | Glossary On
Versions: 1 2 3 4 5 6 7 8 9 10 11 12 13 14 15 16 17 18 19 20 21 22
000
FTUS46 KPDT 230500
TAFBDN
TAF
KBDN 230523Z 2306/2406 22008KT P6SM SCT035
     FM231000 20010KT P6SM SCT030
     FM232100 24010G17KT P6SM BKN040
     FM240100 21006KT P6SM SCT020=

USA.gov is the U.S. government's official web portal to all federal, state and local government web resources and services.